createdAt,value
2019-05-20T00:01:30.552Z,21.12
2019-05-20T00:04:08.153Z,21.23
2019-05-20T00:06:45.362Z,23.12
2019-05-20T00:09:23.366Z,19.55
2019-05-20T00:12:01.242Z,20.80
2019-05-20T00:14:40.043Z,29.85
2019-05-20T00:17:17.758Z,20.25
2019-05-20T00:19:55.703Z,26.40
2019-05-20T00:22:34.383Z,26.57
2019-05-20T00:25:12.983Z,23.27
2019-05-20T00:27:50.674Z,22.20
2019-05-20T00:30:28.883Z,21.87
2019-05-20T00:33:06.594Z,24.52
2019-05-20T00:35:44.203Z,20.75
2019-05-20T00:38:22.202Z,27.82
2019-05-20T00:41:00.462Z,21.65
2019-05-20T00:43:38.929Z,24.95
2019-05-20T00:46:16.335Z,26.55
2019-05-20T00:48:54.307Z,23.95
2019-05-20T00:51:31.703Z,22.58
2019-05-20T00:54:10.551Z,29.98
2019-05-20T00:56:48.426Z,23.15
2019-05-20T00:59:25.989Z,18.27
2019-05-20T01:02:03.835Z,19.82
2019-05-20T01:04:40.976Z,23.57
2019-05-20T01:07:19.070Z,20.45
2019-05-20T01:09:56.829Z,19.65
2019-05-20T01:12:34.399Z,16.65
2019-05-20T01:15:11.706Z,23.30
2019-05-20T01:17:49.054Z,20.50
2019-05-20T01:20:26.652Z,19.40
2019-05-20T01:23:03.852Z,18.55
2019-05-20T01:25:42.388Z,24.98
2019-05-20T01:28:21.437Z,23.55
2019-05-20T01:30:59.303Z,23.40
2019-05-20T01:33:37.463Z,24.85
2019-05-20T01:36:16.000Z,20.30
2019-05-20T01:38:53.520Z,23.20
2019-05-20T01:41:30.850Z,22.90
2019-05-20T01:44:09.506Z,27.93
2019-05-20T01:46:47.380Z,24.98
2019-05-20T01:49:24.731Z,30.20
2019-05-20T01:52:02.697Z,33.05
2019-05-20T01:54:40.459Z,23.30
2019-05-20T01:57:19.593Z,25.08
2019-05-20T01:59:57.498Z,25.35
2019-05-20T02:02:34.966Z,22.30
2019-05-20T02:05:12.889Z,24.23
2019-05-20T02:07:50.352Z,24.43
2019-05-20T02:10:28.100Z,22.30
2019-05-20T02:13:06.117Z,25.45
2019-05-20T02:15:49.577Z,21.37
2019-05-20T02:18:27.431Z,24.85
2019-05-20T02:21:04.765Z,23.80
2019-05-20T02:23:42.730Z,20.40
2019-05-20T02:26:20.960Z,23.55
2019-05-20T02:28:59.896Z,24.15
2019-05-20T02:31:38.453Z,20.48
2019-05-20T02:34:16.304Z,28.50
2019-05-20T02:36:54.444Z,20.92
2019-05-20T02:39:31.918Z,32.80
2019-05-20T02:42:09.463Z,30.05
2019-05-20T02:44:48.392Z,23.73
2019-05-20T02:47:26.074Z,19.67
2019-05-20T02:50:03.262Z,23.35
2019-05-20T02:52:40.677Z,21.60
2019-05-20T02:55:18.320Z,18.82
2019-05-20T02:57:56.283Z,20.72
2019-05-20T03:00:35.829Z,23.38
2019-05-20T03:03:13.423Z,24.70
2019-05-20T03:05:51.151Z,24.32
2019-05-20T03:08:29.402Z,19.23
2019-05-20T03:11:06.708Z,27.37
2019-05-20T03:13:44.054Z,21.80
2019-05-20T03:16:22.525Z,29.52
2019-05-20T03:19:00.476Z,20.68
2019-05-20T03:21:37.756Z,19.90
2019-05-20T03:24:14.794Z,27.65
2019-05-20T03:26:52.322Z,26.27
2019-05-20T03:29:30.638Z,27.32
2019-05-20T03:32:09.506Z,26.48
2019-05-20T03:34:57.524Z,23.85
2019-05-20T03:37:26.275Z,24.30
2019-05-20T03:40:04.732Z,29.92
2019-05-20T03:42:42.599Z,22.35
2019-05-20T03:45:20.440Z,25.30
2019-05-20T03:47:58.232Z,26.55
2019-05-20T03:50:36.781Z,25.65
2019-05-20T03:53:13.898Z,25.85
2019-05-20T03:55:51.587Z,30.20
2019-05-20T03:58:29.531Z,37.85
2019-05-20T04:01:08.277Z,28.80
2019-05-20T04:03:47.872Z,25.55
2019-05-20T04:06:25.477Z,24.52
2019-05-20T04:09:05.106Z,23.73
2019-05-20T04:11:42.608Z,26.77
2019-05-20T04:14:19.863Z,24.40
2019-05-20T04:17:00.023Z,19.35
2019-05-20T04:19:37.734Z,20.88
2019-05-20T04:22:15.164Z,31.10
2019-05-20T04:24:52.894Z,21.93
2019-05-20T04:27:31.353Z,24.20
2019-05-20T04:30:09.320Z,26.35
2019-05-20T04:32:46.943Z,27.25
2019-05-20T04:35:25.251Z,22.42
2019-05-20T04:38:02.633Z,24.70
2019-05-20T04:40:40.204Z,23.87
2019-05-20T04:43:19.425Z,25.90
2019-05-20T04:45:58.388Z,20.95
2019-05-20T04:48:35.625Z,24.47
2019-05-20T04:51:14.560Z,25.57
2019-05-20T04:53:52.565Z,16.62
2019-05-20T04:56:30.030Z,20.75
2019-05-20T04:59:07.411Z,19.73
2019-05-20T05:01:44.717Z,23.30
2019-05-20T05:04:22.687Z,28.65
2019-05-20T05:07:01.956Z,23.95
2019-05-20T05:09:39.289Z,29.12
2019-05-20T05:12:16.723Z,31.10
2019-05-20T05:14:55.101Z,27.48
2019-05-20T05:17:32.915Z,25.17
2019-05-20T05:20:17.690Z,24.32
2019-05-20T05:22:50.024Z,29.85
2019-05-20T05:25:27.754Z,28.75
2019-05-20T05:28:05.354Z,22.15
2019-05-20T05:30:43.334Z,22.93
2019-05-20T05:33:21.248Z,23.42
2019-05-20T05:35:59.143Z,24.40
2019-05-20T05:38:38.934Z,23.15
2019-05-20T05:41:16.244Z,23.52
2019-05-20T05:43:53.639Z,25.77
2019-05-20T05:46:32.706Z,23.27
2019-05-20T05:49:10.547Z,24.05
2019-05-20T05:51:47.066Z,23.15
2019-05-20T05:54:24.214Z,22.22
2019-05-20T05:57:02.471Z,23.65
2019-05-20T05:59:41.564Z,21.52
2019-05-20T06:02:19.228Z,35.48
2019-05-20T06:04:57.432Z,34.45
2019-05-20T06:07:38.284Z,32.00
2019-05-20T06:10:16.743Z,30.70
2019-05-20T06:12:53.851Z,30.32
2019-05-20T06:15:31.609Z,29.40
2019-05-20T06:18:09.182Z,26.00
2019-05-20T06:20:46.364Z,28.80
2019-05-20T06:23:23.903Z,38.25
2019-05-20T06:26:01.436Z,36.45
2019-05-20T06:28:39.080Z,36.38
2019-05-20T06:31:16.937Z,46.60
2019-05-20T06:33:54.222Z,59.98
2019-05-20T06:36:34.318Z,40.40
2019-05-20T06:39:15.802Z,45.80
2019-05-20T06:41:54.578Z,38.00
2019-05-20T06:44:31.907Z,37.98
2019-05-20T06:47:10.269Z,40.67
2019-05-20T06:49:48.021Z,46.90
2019-05-20T06:52:35.521Z,38.42
2019-05-20T06:55:05.357Z,48.02
2019-05-20T06:57:42.803Z,49.75
2019-05-20T07:00:25.581Z,37.10
2019-05-20T07:03:03.114Z,30.70
2019-05-20T07:05:40.301Z,35.73
2019-05-20T07:08:17.469Z,43.78
2019-05-20T07:10:55.221Z,38.70
2019-05-20T07:13:33.682Z,37.00
2019-05-20T07:16:11.183Z,34.55
2019-05-20T07:18:48.830Z,33.65
2019-05-20T07:21:26.530Z,32.80
2019-05-20T07:24:04.598Z,30.62
2019-05-20T07:26:42.083Z,45.73
2019-05-20T07:29:19.592Z,41.73
2019-05-20T07:31:57.146Z,33.95
2019-05-20T07:34:34.381Z,35.40
2019-05-20T07:37:11.670Z,32.05
2019-05-20T07:39:49.422Z,56.58
2019-05-20T07:42:27.478Z,38.35
2019-05-20T07:45:05.689Z,35.05
2019-05-20T07:47:44.587Z,43.68
2019-05-20T07:50:22.389Z,32.33
2019-05-20T07:53:00.852Z,47.70
2019-05-20T07:55:41.835Z,42.48
2019-05-20T07:58:20.218Z,41.53
2019-05-20T08:00:57.477Z,36.23
2019-05-20T08:03:38.526Z,37.13
2019-05-20T08:06:15.143Z,42.85
2019-05-20T08:08:52.098Z,31.82
2019-05-20T08:11:29.192Z,41.98
2019-05-20T08:14:07.762Z,42.93
2019-05-20T08:16:47.630Z,30.08
2019-05-20T08:19:24.730Z,40.92
2019-05-20T08:22:03.520Z,33.20
2019-05-20T08:24:41.531Z,31.42
2019-05-20T08:27:18.962Z,35.30
2019-05-20T08:29:57.469Z,31.52
2019-05-20T08:32:35.589Z,35.55
2019-05-20T08:35:13.501Z,34.45
2019-05-20T08:37:50.947Z,32.35
2019-05-20T08:40:29.895Z,30.37
2019-05-20T08:43:07.097Z,42.35
2019-05-20T08:45:45.793Z,29.25
2019-05-20T08:48:24.136Z,30.40
2019-05-20T08:51:02.290Z,33.67
2019-05-20T08:53:39.954Z,40.88
2019-05-20T08:56:17.487Z,28.40
2019-05-20T08:58:54.870Z,30.50
2019-05-20T09:01:33.206Z,43.60
2019-05-20T09:04:11.344Z,35.40
2019-05-20T09:06:48.843Z,35.58
2019-05-20T09:09:26.753Z,28.35
2019-05-20T09:12:11.373Z,42.67
2019-05-20T09:14:48.454Z,31.13
2019-05-20T09:17:25.698Z,18.82
2019-05-20T09:20:02.956Z,25.85
2019-05-20T09:22:41.772Z,19.42
2019-05-20T09:25:21.203Z,27.95
2019-05-20T09:27:59.062Z,32.33
2019-05-20T09:30:37.208Z,20.72
2019-05-20T09:33:15.021Z,22.93
2019-05-20T09:35:53.739Z,20.88
2019-05-20T09:38:31.476Z,19.60
2019-05-20T09:41:09.059Z,27.65
2019-05-20T09:43:47.019Z,22.77
2019-05-20T09:46:24.197Z,20.65
2019-05-20T09:49:02.064Z,20.15
2019-05-20T09:51:39.293Z,29.02
2019-05-20T09:54:17.772Z,21.97
2019-05-20T09:56:55.105Z,22.70
2019-05-20T09:59:42.495Z,30.00
2019-05-20T10:02:11.118Z,19.57
2019-05-20T10:04:49.477Z,25.70
2019-05-20T10:07:28.103Z,28.45
2019-05-20T10:10:05.463Z,26.52
2019-05-20T10:12:46.494Z,32.25
2019-05-20T10:15:22.274Z,23.87
2019-05-20T10:17:59.863Z,22.93
2019-05-20T10:20:37.647Z,23.98
2019-05-20T10:23:15.925Z,16.95
2019-05-20T10:25:53.938Z,19.17
2019-05-20T10:28:31.482Z,20.45
2019-05-20T10:31:10.235Z,17.35
2019-05-20T10:33:47.655Z,29.00
2019-05-20T10:36:26.518Z,21.27
2019-05-20T10:39:07.792Z,22.55
2019-05-20T10:41:45.650Z,21.85
2019-05-20T10:44:22.980Z,23.02
2019-05-20T10:47:00.711Z,22.50
2019-05-20T10:49:37.810Z,20.43
2019-05-20T10:52:15.144Z,24.20
2019-05-20T10:54:52.441Z,23.73
2019-05-20T10:57:31.049Z,18.27
2019-05-20T11:00:08.873Z,18.80
2019-05-20T11:02:47.226Z,25.92
2019-05-20T11:05:24.656Z,16.62
2019-05-20T11:08:03.587Z,24.05
2019-05-20T11:10:42.413Z,25.60
2019-05-20T11:13:20.549Z,24.80
2019-05-20T11:15:58.266Z,25.10
2019-05-20T11:18:36.733Z,20.20
2019-05-20T11:21:13.761Z,27.27
2019-05-20T11:23:51.177Z,27.27
2019-05-20T11:26:28.362Z,28.95
2019-05-20T11:29:06.321Z,29.75
2019-05-20T11:31:43.976Z,27.45
2019-05-20T11:34:21.072Z,28.35
2019-05-20T11:37:00.504Z,44.85
2019-05-20T11:39:39.973Z,45.35
2019-05-20T11:42:19.804Z,33.90
2019-05-20T11:44:57.432Z,35.60
2019-05-20T11:47:35.377Z,33.50
2019-05-20T11:50:14.349Z,34.40
2019-05-20T11:52:51.703Z,32.10
2019-05-20T11:55:29.788Z,36.53
2019-05-20T11:58:15.755Z,26.65
2019-05-20T12:00:46.682Z,33.18
2019-05-20T12:03:23.768Z,27.65
2019-05-20T12:06:01.560Z,23.98
2019-05-20T12:08:38.894Z,24.45
2019-05-20T12:11:16.866Z,29.32
2019-05-20T12:13:55.559Z,23.30
2019-05-20T12:16:33.632Z,33.38
2019-05-20T12:19:12.024Z,31.15
2019-05-20T12:21:50.293Z,25.70
2019-05-20T12:24:27.367Z,33.55
2019-05-20T12:27:04.672Z,31.87
2019-05-20T12:29:41.985Z,25.65
2019-05-20T12:32:20.315Z,29.05
2019-05-20T12:34:57.761Z,31.60
2019-05-20T12:37:35.567Z,29.23
2019-05-20T12:40:14.064Z,26.97
2019-05-20T12:42:52.112Z,25.10
2019-05-20T12:45:30.575Z,31.40
2019-05-20T12:48:07.953Z,27.98
2019-05-20T12:50:45.441Z,24.23
2019-05-20T12:53:23.551Z,29.90
2019-05-20T12:56:00.911Z,28.00
2019-05-20T12:58:39.587Z,33.02
2019-05-20T13:01:16.839Z,23.47
2019-05-20T13:03:55.292Z,23.30
2019-05-20T13:06:33.268Z,25.23
2019-05-20T13:09:11.748Z,29.55
2019-05-20T13:11:49.141Z,25.00
2019-05-20T13:14:26.928Z,30.00
2019-05-20T13:17:05.696Z,28.25
2019-05-20T13:19:43.304Z,33.23
2019-05-20T13:22:20.721Z,28.87
2019-05-20T13:24:59.654Z,28.12
2019-05-20T13:27:37.140Z,28.83
2019-05-20T13:30:14.835Z,27.00
2019-05-20T13:32:52.903Z,19.92
2019-05-20T13:35:30.964Z,24.90
2019-05-20T13:38:08.480Z,23.30
2019-05-20T13:40:47.316Z,25.27
2019-05-20T13:43:24.366Z,26.93
2019-05-20T13:46:02.692Z,26.95
2019-05-20T13:48:41.072Z,26.50
2019-05-20T13:51:18.680Z,32.33
2019-05-20T13:53:56.161Z,24.95
2019-05-20T13:56:34.686Z,28.12
2019-05-20T13:59:12.125Z,26.55
2019-05-20T14:01:49.846Z,22.25
2019-05-20T14:04:27.295Z,34.78
2019-05-20T14:07:05.374Z,44.00
2019-05-20T14:09:43.085Z,25.65
2019-05-20T14:12:20.495Z,21.75
2019-05-20T14:14:57.591Z,22.02
2019-05-20T14:17:36.878Z,24.95
2019-05-20T14:20:15.780Z,27.62
2019-05-20T14:22:53.057Z,26.55
2019-05-20T14:25:31.725Z,25.12
2019-05-20T14:28:09.403Z,25.82
2019-05-20T14:30:46.384Z,31.77
2019-05-20T14:33:24.635Z,26.55
2019-05-20T14:36:03.406Z,30.70
2019-05-20T14:38:41.676Z,33.30
2019-05-20T14:41:21.923Z,26.05
2019-05-20T14:43:58.373Z,20.62
2019-05-20T14:46:36.146Z,23.70
2019-05-20T14:49:14.201Z,25.27
2019-05-20T14:51:53.836Z,28.65
2019-05-20T14:54:31.706Z,22.95
2019-05-20T14:57:09.892Z,28.10
2019-05-20T14:59:47.698Z,25.65
2019-05-20T15:02:25.382Z,27.70
2019-05-20T15:05:02.883Z,28.95
2019-05-20T15:07:40.048Z,27.25
2019-05-20T15:10:18.971Z,26.17
2019-05-20T15:12:56.415Z,25.85
2019-05-20T15:15:35.584Z,25.57
2019-05-20T15:18:13.014Z,26.02
2019-05-20T15:20:51.028Z,26.33
2019-05-20T15:23:29.601Z,22.95
2019-05-20T15:26:07.308Z,27.40
2019-05-20T15:28:44.425Z,31.15
2019-05-20T15:31:22.829Z,29.05
2019-05-20T15:34:00.871Z,31.48
2019-05-20T15:36:38.101Z,28.07
2019-05-20T15:39:15.587Z,29.15
2019-05-20T15:41:53.555Z,27.82
2019-05-20T15:44:30.858Z,32.53
2019-05-20T15:47:08.762Z,29.37
2019-05-20T15:49:45.990Z,23.30
2019-05-20T15:52:24.468Z,30.17
2019-05-20T15:55:02.961Z,30.30
2019-05-20T15:57:40.532Z,29.35
2019-05-20T16:00:18.320Z,26.90
2019-05-20T16:02:56.174Z,30.70
2019-05-20T16:05:33.907Z,32.20
2019-05-20T16:08:11.327Z,28.98
2019-05-20T16:10:48.560Z,27.75
2019-05-20T16:13:26.775Z,25.55
2019-05-20T16:16:04.258Z,32.25
2019-05-20T16:18:42.111Z,23.42
2019-05-20T16:21:19.756Z,26.17
2019-05-20T16:23:57.758Z,29.92
2019-05-20T16:26:36.684Z,27.27
2019-05-20T16:29:14.574Z,25.97
2019-05-20T16:31:52.379Z,30.40
2019-05-20T16:34:31.055Z,28.30
2019-05-20T16:37:08.712Z,31.75
2019-05-20T16:39:46.537Z,27.32
2019-05-20T16:42:24.137Z,25.25
2019-05-20T16:45:02.224Z,33.15
2019-05-20T16:47:40.279Z,30.32
2019-05-20T16:50:19.359Z,27.75
2019-05-20T16:52:57.392Z,30.68
2019-05-20T16:55:42.135Z,32.73
2019-05-20T16:58:26.424Z,27.90
2019-05-20T17:01:03.667Z,28.73
2019-05-20T17:03:41.826Z,28.20
2019-05-20T17:06:19.969Z,32.15
2019-05-20T17:08:57.526Z,32.28
2019-05-20T17:11:35.348Z,33.20
2019-05-20T17:14:12.478Z,26.97
2019-05-20T17:16:51.051Z,29.63
2019-05-20T17:19:28.531Z,26.25
2019-05-20T17:22:06.210Z,27.70
2019-05-20T17:24:43.605Z,25.17
2019-05-20T17:27:21.657Z,21.45
2019-05-20T17:30:00.433Z,21.27
2019-05-20T17:32:39.398Z,23.55
2019-05-20T17:35:17.728Z,18.37
2019-05-20T17:37:56.556Z,24.30
2019-05-20T17:40:34.306Z,20.88
2019-05-20T17:43:12.262Z,16.57
2019-05-20T17:45:49.630Z,18.23
2019-05-20T17:48:28.811Z,17.52
2019-05-20T17:51:06.530Z,18.27
2019-05-20T17:53:44.036Z,18.92
2019-05-20T17:56:24.057Z,18.57
2019-05-20T17:59:01.664Z,16.73
2019-05-20T18:01:40.765Z,15.95
2019-05-20T18:04:18.471Z,19.02
2019-05-20T18:06:55.839Z,15.00
2019-05-20T18:09:36.609Z,12.15
2019-05-20T18:12:14.134Z,13.30
2019-05-20T18:14:56.912Z,17.48
2019-05-20T18:17:34.376Z,14.78
2019-05-20T18:20:14.120Z,20.62
2019-05-20T18:22:51.091Z,12.78
2019-05-20T18:25:28.943Z,18.32
2019-05-20T18:28:06.355Z,14.75
2019-05-20T18:30:44.167Z,13.53
2019-05-20T18:33:25.147Z,15.78
2019-05-20T18:36:03.034Z,19.45
2019-05-20T18:38:41.873Z,15.68
2019-05-20T18:41:19.861Z,19.35
2019-05-20T18:43:58.305Z,16.77
2019-05-20T18:46:37.083Z,15.30
2019-05-20T18:49:14.337Z,15.72
2019-05-20T18:51:52.414Z,15.60
2019-05-20T18:54:30.140Z,16.52
2019-05-20T18:57:07.488Z,16.82
2019-05-20T18:59:44.698Z,16.10
2019-05-20T19:02:48.857Z,19.82
2019-05-20T19:05:27.444Z,18.17
2019-05-20T19:08:05.987Z,15.50
2019-05-20T19:10:43.725Z,16.30
2019-05-20T19:13:21.809Z,12.73
2019-05-20T19:15:59.043Z,16.05
2019-05-20T19:18:39.263Z,17.42
2019-05-20T19:21:16.765Z,15.35
2019-05-20T19:23:54.794Z,15.58
2019-05-20T19:26:32.522Z,14.33
2019-05-20T19:29:10.066Z,15.08
2019-05-20T19:32:00.692Z,15.60
2019-05-20T19:34:29.661Z,16.02
2019-05-20T19:37:08.544Z,12.37
2019-05-20T19:39:46.228Z,16.60
2019-05-20T19:42:24.266Z,12.95
2019-05-20T19:45:02.086Z,12.15
2019-05-20T19:47:40.944Z,13.95
2019-05-20T19:50:18.640Z,16.00
2019-05-20T19:52:55.921Z,11.20
2019-05-20T19:55:33.865Z,14.50
2019-05-20T19:58:11.149Z,17.25
2019-05-20T20:00:48.967Z,16.10
2019-05-20T20:03:26.540Z,17.62
2019-05-20T20:06:04.440Z,13.30
2019-05-20T20:08:43.476Z,15.03
2019-05-20T20:11:21.545Z,14.95
2019-05-20T20:13:58.446Z,15.83
2019-05-20T20:16:36.544Z,16.85
2019-05-20T20:19:13.954Z,19.32
2019-05-20T20:21:51.560Z,22.58
2019-05-20T20:24:29.341Z,17.77
2019-05-20T20:27:08.122Z,16.02
2019-05-20T20:29:45.626Z,18.77
2019-05-20T20:32:37.526Z,18.65
2019-05-20T20:35:06.435Z,21.07
2019-05-20T20:37:45.081Z,15.13
2019-05-20T20:40:24.264Z,14.90
2019-05-20T20:43:01.679Z,18.23
2019-05-20T20:45:39.375Z,23.10
2019-05-20T20:48:17.348Z,19.32
2019-05-20T20:50:54.392Z,16.57
2019-05-20T20:53:31.619Z,22.65
2019-05-20T20:56:22.727Z,17.73
2019-05-20T20:58:48.176Z,18.45
2019-05-20T21:01:25.944Z,17.35
2019-05-20T21:04:06.099Z,19.85
2019-05-20T21:06:45.803Z,19.82
2019-05-20T21:09:24.001Z,18.32
2019-05-20T21:12:02.801Z,20.52
2019-05-20T21:14:40.653Z,15.43
2019-05-20T21:17:19.340Z,20.50
2019-05-20T21:19:59.816Z,20.35
2019-05-20T21:22:37.354Z,19.10
2019-05-20T21:25:15.238Z,23.47
2019-05-20T21:27:53.007Z,20.27
2019-05-20T21:30:30.650Z,16.37
2019-05-20T21:33:09.611Z,22.20
2019-05-20T21:35:46.928Z,19.32
2019-05-20T21:38:25.964Z,20.23
2019-05-20T21:41:03.958Z,21.02
2019-05-20T21:43:42.436Z,21.20
2019-05-20T21:46:20.136Z,15.75
2019-05-20T21:48:57.787Z,18.23
2019-05-20T21:51:35.751Z,20.25
2019-05-20T21:54:16.685Z,18.73
2019-05-20T21:56:53.968Z,15.25
2019-05-20T21:59:31.611Z,19.00
2019-05-20T22:02:09.895Z,15.75
2019-05-20T22:04:48.795Z,20.85
2019-05-20T22:07:26.457Z,15.43
2019-05-20T22:10:03.713Z,18.20
2019-05-20T22:12:43.328Z,23.20
2019-05-20T22:15:22.130Z,20.37
2019-05-20T22:18:00.170Z,15.50
2019-05-20T22:20:38.341Z,15.25
2019-05-20T22:23:47.928Z,23.05
2019-05-20T22:26:25.061Z,16.87
2019-05-20T22:29:02.621Z,20.30
2019-05-20T22:31:40.013Z,19.70
2019-05-20T22:34:19.549Z,19.07
2019-05-20T22:36:56.937Z,25.02
2019-05-20T22:39:35.384Z,24.87
2019-05-20T22:42:12.958Z,22.77
2019-05-20T22:44:51.333Z,22.50
2019-05-20T22:47:29.484Z,27.82
2019-05-20T22:50:09.421Z,25.35
2019-05-20T22:52:46.962Z,24.72
2019-05-20T22:55:28.571Z,21.57
2019-05-20T22:58:06.734Z,28.00
2019-05-20T23:00:44.209Z,23.15
2019-05-20T23:03:21.821Z,22.50
2019-05-20T23:05:59.884Z,26.52
2019-05-20T23:08:38.620Z,23.67
2019-05-20T23:11:20.207Z,26.50
2019-05-20T23:13:59.254Z,22.77
2019-05-20T23:16:37.345Z,23.85
2019-05-20T23:19:15.902Z,22.62
2019-05-20T23:21:53.545Z,21.65
2019-05-20T23:24:30.990Z,20.50
2019-05-20T23:27:09.791Z,18.62
2019-05-20T23:29:46.924Z,17.20
2019-05-20T23:32:24.666Z,19.77
2019-05-20T23:35:02.254Z,20.52
2019-05-20T23:37:41.356Z,22.67
2019-05-20T23:40:19.463Z,18.27
2019-05-20T23:42:56.950Z,24.25
2019-05-20T23:45:34.008Z,21.77
2019-05-20T23:48:12.648Z,18.37
2019-05-20T23:50:51.209Z,20.20
2019-05-20T23:53:29.476Z,21.33
2019-05-20T23:56:06.881Z,23.55
2019-05-20T23:58:45.302Z,26.10
